sensor_id;sensor_type;location;lat;lon;timestamp;P1;durP1;ratioP1;P2;durP2;ratioP2
19278;SDS011;9773;47.062;15.446;2023-04-03T00:00:26;1.70;;;1.60;;
19278;SDS011;9773;47.062;15.446;2023-04-03T00:02:52;1.97;;;1.30;;
19278;SDS011;9773;47.062;15.446;2023-04-03T00:05:17;1.33;;;1.33;;
19278;SDS011;9773;47.062;15.446;2023-04-03T00:07:43;1.57;;;1.57;;
19278;SDS011;9773;47.062;15.446;2023-04-03T00:10:09;2.00;;;1.80;;
19278;SDS011;9773;47.062;15.446;2023-04-03T00:12:35;1.70;;;1.60;;
19278;SDS011;9773;47.062;15.446;2023-04-03T00:15:01;1.83;;;1.73;;
19278;SDS011;9773;47.062;15.446;2023-04-03T00:17:26;1.63;;;1.53;;
19278;SDS011;9773;47.062;15.446;2023-04-03T00:19:52;1.67;;;1.67;;
19278;SDS011;9773;47.062;15.446;2023-04-03T00:22:18;1.90;;;1.80;;
19278;SDS011;9773;47.062;15.446;2023-04-03T00:24:43;1.63;;;1.53;;
19278;SDS011;9773;47.062;15.446;2023-04-03T00:27:09;1.80;;;1.70;;
19278;SDS011;9773;47.062;15.446;2023-04-03T00:29:36;1.30;;;1.30;;
19278;SDS011;9773;47.062;15.446;2023-04-03T00:32:01;1.70;;;1.60;;
19278;SDS011;9773;47.062;15.446;2023-04-03T00:34:27;1.60;;;1.50;;
19278;SDS011;9773;47.062;15.446;2023-04-03T00:36:53;1.77;;;1.67;;
19278;SDS011;9773;47.062;15.446;2023-04-03T00:39:19;1.70;;;1.60;;
19278;SDS011;9773;47.062;15.446;2023-04-03T00:41:45;1.70;;;1.60;;
19278;SDS011;9773;47.062;15.446;2023-04-03T00:47:03;1.53;;;1.53;;
19278;SDS011;9773;47.062;15.446;2023-04-03T00:49:31;1.43;;;1.40;;
19278;SDS011;9773;47.062;15.446;2023-04-03T00:51:57;1.70;;;1.60;;
19278;SDS011;9773;47.062;15.446;2023-04-03T00:54:24;1.90;;;1.80;;
19278;SDS011;9773;47.062;15.446;2023-04-03T00:56:51;1.57;;;1.57;;
19278;SDS011;9773;47.062;15.446;2023-04-03T00:59:21;1.60;;;1.60;;
19278;SDS011;9773;47.062;15.446;2023-04-03T01:01:51;1.70;;;1.60;;
19278;SDS011;9773;47.062;15.446;2023-04-03T01:07:02;1.53;;;1.43;;
19278;SDS011;9773;47.062;15.446;2023-04-03T01:09:30;1.60;;;1.50;;
19278;SDS011;9773;47.062;15.446;2023-04-03T01:12:17;1.47;;;1.37;;
19278;SDS011;9773;47.062;15.446;2023-04-03T01:14:59;1.90;;;1.80;;
19278;SDS011;9773;47.062;15.446;2023-04-03T01:22:31;1.60;;;1.50;;
19278;SDS011;9773;47.062;15.446;2023-04-03T01:25:03;1.27;;;1.27;;
19278;SDS011;9773;47.062;15.446;2023-04-03T01:27:30;1.40;;;1.40;;
19278;SDS011;9773;47.062;15.446;2023-04-03T01:29:55;2.40;;;1.47;;
19278;SDS011;9773;47.062;15.446;2023-04-03T01:32:22;1.30;;;1.30;;
19278;SDS011;9773;47.062;15.446;2023-04-03T01:34:47;1.77;;;1.67;;
19278;SDS011;9773;47.062;15.446;2023-04-03T01:37:13;1.70;;;1.60;;
19278;SDS011;9773;47.062;15.446;2023-04-03T01:39:39;1.60;;;1.57;;
19278;SDS011;9773;47.062;15.446;2023-04-03T01:42:05;2.00;;;1.90;;
19278;SDS011;9773;47.062;15.446;2023-04-03T01:44:31;1.50;;;1.50;;
19278;SDS011;9773;47.062;15.446;2023-04-03T01:46:57;1.57;;;1.57;;
19278;SDS011;9773;47.062;15.446;2023-04-03T01:49:22;1.67;;;1.67;;
19278;SDS011;9773;47.062;15.446;2023-04-03T01:51:48;1.53;;;1.47;;
19278;SDS011;9773;47.062;15.446;2023-04-03T01:54:14;1.83;;;1.73;;
19278;SDS011;9773;47.062;15.446;2023-04-03T01:56:40;1.70;;;1.60;;
19278;SDS011;9773;47.062;15.446;2023-04-03T01:59:05;1.60;;;1.60;;
19278;SDS011;9773;47.062;15.446;2023-04-03T02:01:31;1.57;;;1.57;;
19278;SDS011;9773;47.062;15.446;2023-04-03T02:03:57;1.50;;;1.50;;
19278;SDS011;9773;47.062;15.446;2023-04-03T02:06:23;1.83;;;1.73;;
19278;SDS011;9773;47.062;15.446;2023-04-03T02:08:48;1.60;;;1.60;;
19278;SDS011;9773;47.062;15.446;2023-04-03T02:11:14;1.67;;;1.60;;
19278;SDS011;9773;47.062;15.446;2023-04-03T02:13:40;1.60;;;1.60;;
19278;SDS011;9773;47.062;15.446;2023-04-03T02:16:07;1.80;;;1.70;;
19278;SDS011;9773;47.062;15.446;2023-04-03T02:18:35;1.70;;;1.60;;
19278;SDS011;9773;47.062;15.446;2023-04-03T02:21:01;1.70;;;1.60;;
19278;SDS011;9773;47.062;15.446;2023-04-03T02:23:26;1.93;;;1.80;;
19278;SDS011;9773;47.062;15.446;2023-04-03T02:25:52;1.67;;;1.60;;
19278;SDS011;9773;47.062;15.446;2023-04-03T02:28:18;1.70;;;1.60;;
19278;SDS011;9773;47.062;15.446;2023-04-03T02:30:43;1.60;;;1.60;;
19278;SDS011;9773;47.062;15.446;2023-04-03T02:33:09;1.63;;;1.60;;
19278;SDS011;9773;47.062;15.446;2023-04-03T02:35:35;1.70;;;1.70;;
19278;SDS011;9773;47.062;15.446;2023-04-03T02:38:01;2.10;;;1.90;;
19278;SDS011;9773;47.062;15.446;2023-04-03T02:40:27;1.73;;;1.63;;
19278;SDS011;9773;47.062;15.446;2023-04-03T02:42:53;1.87;;;1.63;;
19278;SDS011;9773;47.062;15.446;2023-04-03T02:45:19;1.50;;;1.50;;
19278;SDS011;9773;47.062;15.446;2023-04-03T02:47:44;1.53;;;1.43;;
19278;SDS011;9773;47.062;15.446;2023-04-03T02:50:10;1.60;;;1.50;;
19278;SDS011;9773;47.062;15.446;2023-04-03T02:52:36;1.40;;;1.30;;
19278;SDS011;9773;47.062;15.446;2023-04-03T02:55:02;1.37;;;1.37;;
19278;SDS011;9773;47.062;15.446;2023-04-03T02:57:28;1.47;;;1.37;;
19278;SDS011;9773;47.062;15.446;2023-04-03T02:59:54;1.50;;;1.33;;
19278;SDS011;9773;47.062;15.446;2023-04-03T03:02:19;1.30;;;1.30;;
19278;SDS011;9773;47.062;15.446;2023-04-03T03:04:46;1.53;;;1.43;;
19278;SDS011;9773;47.062;15.446;2023-04-03T03:07:11;1.27;;;1.27;;
19278;SDS011;9773;47.062;15.446;2023-04-03T03:09:37;1.47;;;1.47;;
19278;SDS011;9773;47.062;15.446;2023-04-03T03:12:03;1.30;;;1.30;;
19278;SDS011;9773;47.062;15.446;2023-04-03T03:14:29;1.20;;;1.20;;
19278;SDS011;9773;47.062;15.446;2023-04-03T03:16:55;1.13;;;1.13;;
19278;SDS011;9773;47.062;15.446;2023-04-03T03:19:20;1.20;;;1.20;;
19278;SDS011;9773;47.062;15.446;2023-04-03T03:21:46;1.13;;;1.13;;
19278;SDS011;9773;47.062;15.446;2023-04-03T03:24:12;1.17;;;1.17;;
19278;SDS011;9773;47.062;15.446;2023-04-03T03:26:38;1.60;;;1.50;;
19278;SDS011;9773;47.062;15.446;2023-04-03T03:29:04;1.40;;;1.40;;
19278;SDS011;9773;47.062;15.446;2023-04-03T03:31:29;1.60;;;1.57;;
19278;SDS011;9773;47.062;15.446;2023-04-03T03:33:55;1.37;;;1.37;;
19278;SDS011;9773;47.062;15.446;2023-04-03T03:36:21;1.40;;;1.40;;
19278;SDS011;9773;47.062;15.446;2023-04-03T03:38:47;1.40;;;1.40;;
19278;SDS011;9773;47.062;15.446;2023-04-03T03:41:12;1.27;;;1.27;;
19278;SDS011;9773;47.062;15.446;2023-04-03T03:43:38;1.20;;;1.20;;
19278;SDS011;9773;47.062;15.446;2023-04-03T03:46:04;1.30;;;1.30;;
19278;SDS011;9773;47.062;15.446;2023-04-03T03:48:30;1.77;;;1.27;;
19278;SDS011;9773;47.062;15.446;2023-04-03T03:50:55;1.60;;;1.50;;
19278;SDS011;9773;47.062;15.446;2023-04-03T03:53:21;1.67;;;1.57;;
19278;SDS011;9773;47.062;15.446;2023-04-03T03:55:47;1.70;;;1.60;;
19278;SDS011;9773;47.062;15.446;2023-04-03T03:58:13;1.17;;;1.17;;
19278;SDS011;9773;47.062;15.446;2023-04-03T04:00:38;1.30;;;1.30;;
19278;SDS011;9773;47.062;15.446;2023-04-03T04:03:04;1.23;;;1.20;;
19278;SDS011;9773;47.062;15.446;2023-04-03T04:05:30;1.87;;;1.20;;
19278;SDS011;9773;47.062;15.446;2023-04-03T04:07:56;1.20;;;1.20;;
19278;SDS011;9773;47.062;15.446;2023-04-03T04:10:21;1.60;;;1.50;;
19278;SDS011;9773;47.062;15.446;2023-04-03T04:12:47;1.43;;;1.33;;
19278;SDS011;9773;47.062;15.446;2023-04-03T04:15:14;1.23;;;1.23;;
19278;SDS011;9773;47.062;15.446;2023-04-03T04:17:39;1.10;;;1.10;;
19278;SDS011;9773;47.062;15.446;2023-04-03T04:20:05;0.83;;;0.83;;
19278;SDS011;9773;47.062;15.446;2023-04-03T04:22:31;1.20;;;1.20;;
19278;SDS011;9773;47.062;15.446;2023-04-03T04:24:57;1.27;;;1.17;;
19278;SDS011;9773;47.062;15.446;2023-04-03T04:27:23;1.10;;;1.10;;
19278;SDS011;9773;47.062;15.446;2023-04-03T04:29:49;1.03;;;1.03;;
19278;SDS011;9773;47.062;15.446;2023-04-03T04:32:14;1.43;;;1.33;;
19278;SDS011;9773;47.062;15.446;2023-04-03T04:34:40;1.20;;;1.20;;
19278;SDS011;9773;47.062;15.446;2023-04-03T04:37:06;1.27;;;1.23;;
19278;SDS011;9773;47.062;15.446;2023-04-03T04:39:32;1.37;;;1.30;;
19278;SDS011;9773;47.062;15.446;2023-04-03T04:41:57;1.10;;;1.10;;
19278;SDS011;9773;47.062;15.446;2023-04-03T04:44:23;1.43;;;1.30;;
19278;SDS011;9773;47.062;15.446;2023-04-03T04:46:49;1.23;;;1.23;;
19278;SDS011;9773;47.062;15.446;2023-04-03T04:49:15;1.30;;;1.30;;
19278;SDS011;9773;47.062;15.446;2023-04-03T04:51:40;1.03;;;1.03;;
19278;SDS011;9773;47.062;15.446;2023-04-03T04:54:06;1.50;;;1.40;;
19278;SDS011;9773;47.062;15.446;2023-04-03T04:56:32;1.17;;;1.17;;
19278;SDS011;9773;47.062;15.446;2023-04-03T04:58:57;1.60;;;1.50;;
19278;SDS011;9773;47.062;15.446;2023-04-03T05:01:23;1.53;;;1.53;;
19278;SDS011;9773;47.062;15.446;2023-04-03T05:03:49;1.13;;;1.13;;
19278;SDS011;9773;47.062;15.446;2023-04-03T05:06:15;1.30;;;1.30;;
19278;SDS011;9773;47.062;15.446;2023-04-03T05:08:40;1.33;;;1.33;;
19278;SDS011;9773;47.062;15.446;2023-04-03T05:11:06;1.50;;;1.50;;
19278;SDS011;9773;47.062;15.446;2023-04-03T05:13:32;0.80;;;0.80;;
19278;SDS011;9773;47.062;15.446;2023-04-03T05:15:58;1.30;;;1.30;;
19278;SDS011;9773;47.062;15.446;2023-04-03T05:18:24;1.00;;;1.00;;
19278;SDS011;9773;47.062;15.446;2023-04-03T05:20:50;1.23;;;1.20;;
19278;SDS011;9773;47.062;15.446;2023-04-03T05:23:16;1.00;;;1.00;;
19278;SDS011;9773;47.062;15.446;2023-04-03T05:25:42;1.20;;;1.20;;
19278;SDS011;9773;47.062;15.446;2023-04-03T05:28:10;2.97;;;1.13;;
19278;SDS011;9773;47.062;15.446;2023-04-03T05:30:36;1.50;;;1.40;;
19278;SDS011;9773;47.062;15.446;2023-04-03T05:33:02;1.30;;;1.20;;
19278;SDS011;9773;47.062;15.446;2023-04-03T05:35:27;1.10;;;1.10;;
19278;SDS011;9773;47.062;15.446;2023-04-03T05:37:53;1.10;;;1.10;;
19278;SDS011;9773;47.062;15.446;2023-04-03T05:40:19;0.97;;;0.97;;
19278;SDS011;9773;47.062;15.446;2023-04-03T05:42:45;1.03;;;1.03;;
19278;SDS011;9773;47.062;15.446;2023-04-03T05:45:11;1.20;;;0.93;;
19278;SDS011;9773;47.062;15.446;2023-04-03T05:47:37;1.13;;;1.13;;
19278;SDS011;9773;47.062;15.446;2023-04-03T05:50:03;1.40;;;1.30;;
19278;SDS011;9773;47.062;15.446;2023-04-03T05:52:30;1.40;;;1.40;;
19278;SDS011;9773;47.062;15.446;2023-04-03T05:55:05;1.07;;;1.07;;
19278;SDS011;9773;47.062;15.446;2023-04-03T05:57:31;1.30;;;1.30;;
19278;SDS011;9773;47.062;15.446;2023-04-03T05:59:57;1.13;;;1.13;;
19278;SDS011;9773;47.062;15.446;2023-04-03T06:02:23;1.17;;;1.17;;
19278;SDS011;9773;47.062;15.446;2023-04-03T06:04:50;0.93;;;0.93;;
19278;SDS011;9773;47.062;15.446;2023-04-03T06:07:19;1.20;;;1.20;;
19278;SDS011;9773;47.062;15.446;2023-04-03T06:09:47;3.60;;;1.17;;
19278;SDS011;9773;47.062;15.446;2023-04-03T06:12:14;1.00;;;1.00;;
19278;SDS011;9773;47.062;15.446;2023-04-03T06:14:40;1.23;;;1.20;;
19278;SDS011;9773;47.062;15.446;2023-04-03T06:17:06;1.07;;;1.07;;
19278;SDS011;9773;47.062;15.446;2023-04-03T06:19:33;1.33;;;1.33;;
19278;SDS011;9773;47.062;15.446;2023-04-03T06:21:59;0.90;;;0.90;;
19278;SDS011;9773;47.062;15.446;2023-04-03T06:24:25;1.00;;;1.00;;
19278;SDS011;9773;47.062;15.446;2023-04-03T06:26:51;1.10;;;1.10;;
19278;SDS011;9773;47.062;15.446;2023-04-03T06:29:18;1.60;;;1.50;;
19278;SDS011;9773;47.062;15.446;2023-04-03T06:31:44;2.93;;;1.40;;
19278;SDS011;9773;47.062;15.446;2023-04-03T06:34:11;1.33;;;1.33;;
19278;SDS011;9773;47.062;15.446;2023-04-03T06:36:37;1.13;;;1.13;;
19278;SDS011;9773;47.062;15.446;2023-04-03T06:39:03;1.20;;;1.10;;
19278;SDS011;9773;47.062;15.446;2023-04-03T06:41:29;3.23;;;1.13;;
19278;SDS011;9773;47.062;15.446;2023-04-03T06:43:55;1.20;;;1.20;;
19278;SDS011;9773;47.062;15.446;2023-04-03T06:46:23;1.30;;;1.30;;
19278;SDS011;9773;47.062;15.446;2023-04-03T06:48:50;1.37;;;1.30;;
19278;SDS011;9773;47.062;15.446;2023-04-03T06:51:21;1.23;;;1.23;;
19278;SDS011;9773;47.062;15.446;2023-04-03T06:53:48;1.40;;;1.40;;
19278;SDS011;9773;47.062;15.446;2023-04-03T06:56:15;1.00;;;1.00;;
19278;SDS011;9773;47.062;15.446;2023-04-03T06:58:41;1.10;;;1.10;;
19278;SDS011;9773;47.062;15.446;2023-04-03T07:01:08;1.10;;;1.10;;
19278;SDS011;9773;47.062;15.446;2023-04-03T07:03:36;1.30;;;1.30;;
19278;SDS011;9773;47.062;15.446;2023-04-03T07:06:02;2.87;;;1.20;;
19278;SDS011;9773;47.062;15.446;2023-04-03T07:08:29;1.00;;;1.00;;
19278;SDS011;9773;47.062;15.446;2023-04-03T07:10:55;1.23;;;1.13;;
19278;SDS011;9773;47.062;15.446;2023-04-03T07:13:21;1.03;;;1.03;;
19278;SDS011;9773;47.062;15.446;2023-04-03T07:15:47;1.27;;;1.27;;
19278;SDS011;9773;47.062;15.446;2023-04-03T07:18:13;1.43;;;1.43;;
19278;SDS011;9773;47.062;15.446;2023-04-03T07:20:41;1.20;;;1.10;;
19278;SDS011;9773;47.062;15.446;2023-04-03T07:23:08;1.27;;;1.27;;
19278;SDS011;9773;47.062;15.446;2023-04-03T07:25:34;1.50;;;1.40;;
19278;SDS011;9773;47.062;15.446;2023-04-03T07:28:00;1.13;;;1.13;;
19278;SDS011;9773;47.062;15.446;2023-04-03T07:30:26;1.40;;;1.30;;
19278;SDS011;9773;47.062;15.446;2023-04-03T07:32:51;2.63;;;1.10;;
19278;SDS011;9773;47.062;15.446;2023-04-03T07:35:17;1.43;;;1.43;;
19278;SDS011;9773;47.062;15.446;2023-04-03T07:37:44;1.30;;;1.30;;
19278;SDS011;9773;47.062;15.446;2023-04-03T07:40:10;1.40;;;1.40;;
19278;SDS011;9773;47.062;15.446;2023-04-03T07:42:35;1.13;;;1.13;;
19278;SDS011;9773;47.062;15.446;2023-04-03T07:45:02;1.40;;;1.30;;
19278;SDS011;9773;47.062;15.446;2023-04-03T07:47:29;1.10;;;1.10;;
19278;SDS011;9773;47.062;15.446;2023-04-03T07:49:55;1.10;;;1.10;;
19278;SDS011;9773;47.062;15.446;2023-04-03T07:52:22;0.80;;;0.80;;
19278;SDS011;9773;47.062;15.446;2023-04-03T07:54:48;1.00;;;1.00;;
19278;SDS011;9773;47.062;15.446;2023-04-03T07:57:14;1.30;;;1.30;;
19278;SDS011;9773;47.062;15.446;2023-04-03T07:59:40;1.17;;;1.10;;
19278;SDS011;9773;47.062;15.446;2023-04-03T08:02:11;1.63;;;1.53;;
19278;SDS011;9773;47.062;15.446;2023-04-03T08:04:37;1.00;;;1.00;;
19278;SDS011;9773;47.062;15.446;2023-04-03T08:07:03;1.00;;;1.00;;
19278;SDS011;9773;47.062;15.446;2023-04-03T08:09:28;1.17;;;1.17;;
19278;SDS011;9773;47.062;15.446;2023-04-03T08:11:54;0.93;;;0.93;;
19278;SDS011;9773;47.062;15.446;2023-04-03T08:14:20;1.10;;;1.10;;
19278;SDS011;9773;47.062;15.446;2023-04-03T08:16:46;1.10;;;1.10;;
19278;SDS011;9773;47.062;15.446;2023-04-03T08:19:13;1.13;;;1.13;;
19278;SDS011;9773;47.062;15.446;2023-04-03T08:21:42;1.07;;;1.07;;
19278;SDS011;9773;47.062;15.446;2023-04-03T08:24:08;1.00;;;1.00;;
19278;SDS011;9773;47.062;15.446;2023-04-03T08:26:35;1.00;;;1.00;;
19278;SDS011;9773;47.062;15.446;2023-04-03T08:29:01;1.20;;;1.20;;
19278;SDS011;9773;47.062;15.446;2023-04-03T08:31:27;1.20;;;1.20;;
19278;SDS011;9773;47.062;15.446;2023-04-03T08:33:53;1.20;;;1.10;;
19278;SDS011;9773;47.062;15.446;2023-04-03T08:36:23;0.93;;;0.93;;
19278;SDS011;9773;47.062;15.446;2023-04-03T08:38:51;1.00;;;1.00;;
19278;SDS011;9773;47.062;15.446;2023-04-03T08:46:32;1.70;;;1.10;;
19278;SDS011;9773;47.062;15.446;2023-04-03T08:52:19;0.97;;;0.97;;
19278;SDS011;9773;47.062;15.446;2023-04-03T08:58:36;1.00;;;1.00;;
19278;SDS011;9773;47.062;15.446;2023-04-03T09:00:44;1.10;;;1.10;;
19278;SDS011;9773;47.062;15.446;2023-04-03T09:03:31;1.30;;;1.30;;
19278;SDS011;9773;47.062;15.446;2023-04-03T09:06:13;0.80;;;0.80;;
19278;SDS011;9773;47.062;15.446;2023-04-03T09:08:40;0.97;;;0.97;;
19278;SDS011;9773;47.062;15.446;2023-04-03T09:19:08;0.87;;;0.87;;
19278;SDS011;9773;47.062;15.446;2023-04-03T09:21:48;0.90;;;0.90;;
19278;SDS011;9773;47.062;15.446;2023-04-03T09:24:15;1.00;;;1.00;;
19278;SDS011;9773;47.062;15.446;2023-04-03T09:26:51;0.97;;;0.93;;
19278;SDS011;9773;47.062;15.446;2023-04-03T09:29:24;0.90;;;0.90;;
19278;SDS011;9773;47.062;15.446;2023-04-03T09:31:50;0.80;;;0.80;;
19278;SDS011;9773;47.062;15.446;2023-04-03T09:34:28;1.10;;;1.10;;
19278;SDS011;9773;47.062;15.446;2023-04-03T09:37:01;0.90;;;0.90;;
19278;SDS011;9773;47.062;15.446;2023-04-03T09:39:31;1.10;;;1.10;;
19278;SDS011;9773;47.062;15.446;2023-04-03T09:42:15;1.17;;;1.13;;
19278;SDS011;9773;47.062;15.446;2023-04-03T09:44:54;0.90;;;0.90;;
19278;SDS011;9773;47.062;15.446;2023-04-03T09:47:26;0.87;;;0.87;;
19278;SDS011;9773;47.062;15.446;2023-04-03T09:52:38;1.27;;;0.90;;
19278;SDS011;9773;47.062;15.446;2023-04-03T09:55:08;0.93;;;0.93;;
19278;SDS011;9773;47.062;15.446;2023-04-03T09:58:00;0.97;;;0.97;;
19278;SDS011;9773;47.062;15.446;2023-04-03T10:00:33;1.30;;;1.20;;
19278;SDS011;9773;47.062;15.446;2023-04-03T10:03:03;1.07;;;1.07;;
19278;SDS011;9773;47.062;15.446;2023-04-03T10:10:44;0.90;;;0.90;;
19278;SDS011;9773;47.062;15.446;2023-04-03T10:18:46;1.17;;;1.17;;
19278;SDS011;9773;47.062;15.446;2023-04-03T10:24:11;1.10;;;1.10;;
19278;SDS011;9773;47.062;15.446;2023-04-03T10:26:49;0.87;;;0.87;;
19278;SDS011;9773;47.062;15.446;2023-04-03T10:34:52;1.40;;;1.30;;
19278;SDS011;9773;47.062;15.446;2023-04-03T10:37:42;1.10;;;1.10;;
19278;SDS011;9773;47.062;15.446;2023-04-03T10:46:06;1.87;;;1.10;;
19278;SDS011;9773;47.062;15.446;2023-04-03T10:54:13;1.30;;;1.20;;
19278;SDS011;9773;47.062;15.446;2023-04-03T10:56:54;0.93;;;0.93;;
19278;SDS011;9773;47.062;15.446;2023-04-03T11:02:28;1.00;;;1.00;;
19278;SDS011;9773;47.062;15.446;2023-04-03T11:05:04;1.00;;;1.00;;
19278;SDS011;9773;47.062;15.446;2023-04-03T11:07:39;1.20;;;1.10;;
19278;SDS011;9773;47.062;15.446;2023-04-03T11:10:13;1.10;;;1.10;;
19278;SDS011;9773;47.062;15.446;2023-04-03T11:13:06;1.20;;;1.10;;
19278;SDS011;9773;47.062;15.446;2023-04-03T11:15:33;1.00;;;1.00;;
19278;SDS011;9773;47.062;15.446;2023-04-03T11:18:03;1.10;;;1.10;;
19278;SDS011;9773;47.062;15.446;2023-04-03T11:20:42;1.30;;;1.30;;
19278;SDS011;9773;47.062;15.446;2023-04-03T11:23:24;0.80;;;0.80;;
19278;SDS011;9773;47.062;15.446;2023-04-03T11:25:53;0.90;;;0.90;;
19278;SDS011;9773;47.062;15.446;2023-04-03T11:28:21;0.90;;;0.90;;
19278;SDS011;9773;47.062;15.446;2023-04-03T11:33:58;0.90;;;0.90;;
19278;SDS011;9773;47.062;15.446;2023-04-03T11:36:47;0.93;;;0.93;;
19278;SDS011;9773;47.062;15.446;2023-04-03T11:39:26;0.90;;;0.90;;
19278;SDS011;9773;47.062;15.446;2023-04-03T11:42:12;0.80;;;0.80;;
19278;SDS011;9773;47.062;15.446;2023-04-03T11:44:50;1.27;;;1.17;;
19278;SDS011;9773;47.062;15.446;2023-04-03T11:50:39;0.93;;;0.93;;
19278;SDS011;9773;47.062;15.446;2023-04-03T12:08:26;1.00;;;1.00;;
19278;SDS011;9773;47.062;15.446;2023-04-03T12:45:40;1.03;;;1.03;;
19278;SDS011;9773;47.062;15.446;2023-04-03T12:48:12;1.13;;;1.10;;
19278;SDS011;9773;47.062;15.446;2023-04-03T12:50:40;1.30;;;1.30;;
19278;SDS011;9773;47.062;15.446;2023-04-03T12:53:14;1.10;;;1.10;;
19278;SDS011;9773;47.062;15.446;2023-04-03T12:55:47;1.20;;;1.20;;
19278;SDS011;9773;47.062;15.446;2023-04-03T12:58:14;1.00;;;1.00;;
19278;SDS011;9773;47.062;15.446;2023-04-03T13:00:42;1.40;;;1.30;;
19278;SDS011;9773;47.062;15.446;2023-04-03T13:03:21;1.30;;;1.30;;
19278;SDS011;9773;47.062;15.446;2023-04-03T13:05:49;1.23;;;1.23;;
19278;SDS011;9773;47.062;15.446;2023-04-03T13:08:15;1.53;;;1.37;;
19278;SDS011;9773;47.062;15.446;2023-04-03T13:10:51;1.30;;;1.20;;
19278;SDS011;9773;47.062;15.446;2023-04-03T13:13:20;1.10;;;1.10;;
19278;SDS011;9773;47.062;15.446;2023-04-03T13:15:48;1.30;;;1.30;;
19278;SDS011;9773;47.062;15.446;2023-04-03T13:21:17;0.87;;;0.87;;
19278;SDS011;9773;47.062;15.446;2023-04-03T13:23:50;1.30;;;1.23;;
19278;SDS011;9773;47.062;15.446;2023-04-03T13:26:20;1.30;;;1.30;;
19278;SDS011;9773;47.062;15.446;2023-04-03T13:28:49;1.10;;;1.00;;
19278;SDS011;9773;47.062;15.446;2023-04-03T13:31:17;0.90;;;0.90;;
19278;SDS011;9773;47.062;15.446;2023-04-03T13:33:58;1.10;;;1.10;;
19278;SDS011;9773;47.062;15.446;2023-04-03T13:36:38;1.10;;;0.97;;
19278;SDS011;9773;47.062;15.446;2023-04-03T13:39:33;1.00;;;1.00;;
19278;SDS011;9773;47.062;15.446;2023-04-03T13:42:14;1.07;;;1.07;;
19278;SDS011;9773;47.062;15.446;2023-04-03T13:47:39;1.23;;;1.20;;
19278;SDS011;9773;47.062;15.446;2023-04-03T13:52:48;0.80;;;0.80;;
19278;SDS011;9773;47.062;15.446;2023-04-03T14:00:39;1.10;;;1.10;;
19278;SDS011;9773;47.062;15.446;2023-04-03T14:03:33;1.03;;;0.97;;
19278;SDS011;9773;47.062;15.446;2023-04-03T14:06:12;0.90;;;0.90;;
19278;SDS011;9773;47.062;15.446;2023-04-03T14:08:40;1.30;;;1.30;;
19278;SDS011;9773;47.062;15.446;2023-04-03T14:11:08;1.30;;;1.30;;
19278;SDS011;9773;47.062;15.446;2023-04-03T14:13:40;0.90;;;0.90;;
19278;SDS011;9773;47.062;15.446;2023-04-03T14:16:06;1.20;;;1.20;;
19278;SDS011;9773;47.062;15.446;2023-04-03T14:18:32;0.93;;;0.93;;
19278;SDS011;9773;47.062;15.446;2023-04-03T14:20:58;1.10;;;1.10;;
19278;SDS011;9773;47.062;15.446;2023-04-03T14:23:23;1.80;;;1.70;;
19278;SDS011;9773;47.062;15.446;2023-04-03T14:25:49;1.30;;;1.20;;
19278;SDS011;9773;47.062;15.446;2023-04-03T14:28:16;1.40;;;1.30;;
19278;SDS011;9773;47.062;15.446;2023-04-03T14:30:44;1.20;;;1.20;;
19278;SDS011;9773;47.062;15.446;2023-04-03T14:33:15;2.00;;;1.43;;
19278;SDS011;9773;47.062;15.446;2023-04-03T14:35:43;1.30;;;1.30;;
19278;SDS011;9773;47.062;15.446;2023-04-03T14:38:29;2.30;;;1.10;;
19278;SDS011;9773;47.062;15.446;2023-04-03T14:40:55;1.57;;;1.57;;
19278;SDS011;9773;47.062;15.446;2023-04-03T14:43:23;1.40;;;1.40;;
19278;SDS011;9773;47.062;15.446;2023-04-03T14:45:49;1.90;;;1.67;;
19278;SDS011;9773;47.062;15.446;2023-04-03T14:48:24;1.90;;;1.40;;
19278;SDS011;9773;47.062;15.446;2023-04-03T14:50:51;1.27;;;1.27;;
19278;SDS011;9773;47.062;15.446;2023-04-03T14:53:19;1.20;;;1.20;;
19278;SDS011;9773;47.062;15.446;2023-04-03T14:55:51;1.43;;;1.33;;
19278;SDS011;9773;47.062;15.446;2023-04-03T14:58:18;1.30;;;1.30;;
19278;SDS011;9773;47.062;15.446;2023-04-03T15:00:45;3.53;;;1.60;;
19278;SDS011;9773;47.062;15.446;2023-04-03T15:03:15;1.50;;;1.50;;
19278;SDS011;9773;47.062;15.446;2023-04-03T15:05:46;1.13;;;1.13;;
19278;SDS011;9773;47.062;15.446;2023-04-03T15:08:16;1.70;;;1.50;;
19278;SDS011;9773;47.062;15.446;2023-04-03T15:10:45;1.33;;;1.33;;
19278;SDS011;9773;47.062;15.446;2023-04-03T15:13:11;1.40;;;1.30;;
19278;SDS011;9773;47.062;15.446;2023-04-03T15:15:38;1.60;;;1.50;;
19278;SDS011;9773;47.062;15.446;2023-04-03T15:18:04;1.53;;;1.40;;
19278;SDS011;9773;47.062;15.446;2023-04-03T15:20:31;1.23;;;1.23;;
19278;SDS011;9773;47.062;15.446;2023-04-03T15:22:58;2.70;;;1.67;;
19278;SDS011;9773;47.062;15.446;2023-04-03T15:25:26;1.87;;;1.80;;
19278;SDS011;9773;47.062;15.446;2023-04-03T15:27:53;1.30;;;1.30;;
19278;SDS011;9773;47.062;15.446;2023-04-03T15:30:20;1.50;;;1.40;;
19278;SDS011;9773;47.062;15.446;2023-04-03T15:32:46;1.63;;;1.57;;
19278;SDS011;9773;47.062;15.446;2023-04-03T15:35:12;1.47;;;1.43;;
19278;SDS011;9773;47.062;15.446;2023-04-03T15:37:38;1.47;;;1.47;;
19278;SDS011;9773;47.062;15.446;2023-04-03T15:40:04;1.20;;;1.20;;
19278;SDS011;9773;47.062;15.446;2023-04-03T15:42:31;1.60;;;1.60;;
19278;SDS011;9773;47.062;15.446;2023-04-03T15:44:57;1.90;;;1.80;;
19278;SDS011;9773;47.062;15.446;2023-04-03T15:47:24;1.80;;;1.70;;
19278;SDS011;9773;47.062;15.446;2023-04-03T15:49:50;1.60;;;1.60;;
19278;SDS011;9773;47.062;15.446;2023-04-03T15:52:16;2.60;;;1.83;;
19278;SDS011;9773;47.062;15.446;2023-04-03T15:54:42;1.67;;;1.50;;
19278;SDS011;9773;47.062;15.446;2023-04-03T15:57:07;1.50;;;1.50;;
19278;SDS011;9773;47.062;15.446;2023-04-03T15:59:33;1.63;;;1.57;;
19278;SDS011;9773;47.062;15.446;2023-04-03T16:01:59;1.53;;;1.53;;
19278;SDS011;9773;47.062;15.446;2023-04-03T16:04:26;1.70;;;1.50;;
19278;SDS011;9773;47.062;15.446;2023-04-03T16:06:52;1.77;;;1.70;;
19278;SDS011;9773;47.062;15.446;2023-04-03T16:09:18;1.13;;;1.13;;
19278;SDS011;9773;47.062;15.446;2023-04-03T16:11:44;1.47;;;1.47;;
19278;SDS011;9773;47.062;15.446;2023-04-03T16:14:10;1.70;;;1.60;;
19278;SDS011;9773;47.062;15.446;2023-04-03T16:16:38;1.60;;;1.60;;
19278;SDS011;9773;47.062;15.446;2023-04-03T16:19:04;2.00;;;1.90;;
19278;SDS011;9773;47.062;15.446;2023-04-03T16:21:31;1.60;;;1.50;;
19278;SDS011;9773;47.062;15.446;2023-04-03T16:23:58;2.10;;;2.00;;
19278;SDS011;9773;47.062;15.446;2023-04-03T16:26:24;1.57;;;1.47;;
19278;SDS011;9773;47.062;15.446;2023-04-03T16:28:51;1.70;;;1.70;;
19278;SDS011;9773;47.062;15.446;2023-04-03T16:31:17;1.80;;;1.80;;
19278;SDS011;9773;47.062;15.446;2023-04-03T16:33:43;1.70;;;1.60;;
19278;SDS011;9773;47.062;15.446;2023-04-03T16:36:09;1.67;;;1.60;;
19278;SDS011;9773;47.062;15.446;2023-04-03T16:38:35;1.60;;;1.50;;
19278;SDS011;9773;47.062;15.446;2023-04-03T16:41:01;2.10;;;2.00;;
19278;SDS011;9773;47.062;15.446;2023-04-03T16:43:32;1.63;;;1.63;;
19278;SDS011;9773;47.062;15.446;2023-04-03T16:45:59;1.80;;;1.80;;
19278;SDS011;9773;47.062;15.446;2023-04-03T16:48:27;1.90;;;1.80;;
19278;SDS011;9773;47.062;15.446;2023-04-03T16:50:53;2.40;;;1.73;;
19278;SDS011;9773;47.062;15.446;2023-04-03T16:53:19;1.80;;;1.70;;
19278;SDS011;9773;47.062;15.446;2023-04-03T16:55:46;1.97;;;1.87;;
19278;SDS011;9773;47.062;15.446;2023-04-03T16:58:12;1.50;;;1.50;;
19278;SDS011;9773;47.062;15.446;2023-04-03T17:00:38;1.63;;;1.60;;
19278;SDS011;9773;47.062;15.446;2023-04-03T17:03:04;2.00;;;1.77;;
19278;SDS011;9773;47.062;15.446;2023-04-03T17:05:29;1.70;;;1.70;;
19278;SDS011;9773;47.062;15.446;2023-04-03T17:07:55;1.97;;;1.87;;
19278;SDS011;9773;47.062;15.446;2023-04-03T17:10:21;1.80;;;1.70;;